X  Zatvorit Metar udaje     LZPP Piešťany Airport
Teplota
19°C Teplota
15°C Rosny bod
78% Vlhkost



Vietor
5 KM/h
3 MPH
1 M/S
3 KTS



40°
SV
Aktualne pocasie

Prevazne polooblacno Prevazne polooblacno
Tlak 1009.82 (hPa) - 29.82 (inHg)
Viditelnost 6 (mile) - 9.7 (km)
Letisko
Kod letiska LZPP

Miesto: Piešťany Airport
Vzdialenost: 31 (km)

Metar:
LZPP 221330Z 04003KT 350V090 9999 SCT028 19/15 Q1010

Cas: 22-05-2024 15:30 CEST